createdAt,value
2017-10-24T00:00:24.330Z,0
2017-10-24T00:01:45.832Z,0
2017-10-24T00:03:07.681Z,0
2017-10-24T00:04:29.536Z,0
2017-10-24T00:05:51.405Z,0
2017-10-24T00:07:13.656Z,0
2017-10-24T00:08:36.163Z,0
2017-10-24T00:09:58.337Z,0
2017-10-24T00:11:20.963Z,0
2017-10-24T00:12:42.485Z,0
2017-10-24T00:14:04.472Z,0
2017-10-24T00:15:26.628Z,0
2017-10-24T00:16:48.525Z,0
2017-10-24T00:18:10.149Z,0
2017-10-24T00:19:31.433Z,0
2017-10-24T00:20:53.655Z,0
2017-10-24T00:22:15.504Z,0
2017-10-24T00:23:37.997Z,0
2017-10-24T00:24:59.848Z,0
2017-10-24T00:26:21.606Z,0
2017-10-24T00:27:43.785Z,0
2017-10-24T00:29:05.409Z,0
2017-10-24T00:30:27.593Z,0
2017-10-24T00:31:49.910Z,0
2017-10-24T00:33:11.410Z,0
2017-10-24T00:34:32.947Z,0
2017-10-24T00:35:55.469Z,0
2017-10-24T00:37:16.635Z,0
2017-10-24T00:38:38.907Z,0
2017-10-24T00:40:00.435Z,0
2017-10-24T00:41:22.944Z,0
2017-10-24T00:42:44.795Z,0
2017-10-24T00:44:06.297Z,0
2017-10-24T00:45:27.804Z,0
2017-10-24T00:46:49.654Z,0
2017-10-24T00:48:11.844Z,0
2017-10-24T00:49:34.038Z,0
2017-10-24T00:50:55.875Z,0
2017-10-24T00:52:17.721Z,0
2017-10-24T00:53:40.220Z,0
2017-10-24T00:55:02.065Z,0
2017-10-24T00:56:24.258Z,0
2017-10-24T00:57:46.450Z,0
2017-10-24T00:59:08.545Z,0
2017-10-24T01:00:30.736Z,0
2017-10-24T01:01:52.954Z,0
2017-10-24T01:03:14.830Z,0
2017-10-24T01:04:36.458Z,0
2017-10-24T01:05:57.309Z,0
2017-10-24T01:07:19.821Z,0
2017-10-24T01:08:42.056Z,0
2017-10-24T01:10:04.175Z,0
2017-10-24T01:11:25.485Z,0
2017-10-24T01:12:47.986Z,0
2017-10-24T01:14:10.615Z,0
2017-10-24T01:15:32.794Z,0
2017-10-24T01:16:54.637Z,0
2017-10-24T01:18:16.184Z,0
2017-10-24T01:19:38.377Z,0
2017-10-24T01:21:01.073Z,0
2017-10-24T01:22:22.251Z,0
2017-10-24T01:23:44.465Z,0
2017-10-24T01:25:06.635Z,0
2017-10-24T01:26:28.502Z,0
2017-10-24T01:27:50.074Z,0
2017-10-24T01:29:12.636Z,0
2017-10-24T01:30:34.485Z,0
2017-10-24T01:31:56.924Z,0
2017-10-24T01:33:18.781Z,0
2017-10-24T01:34:39.971Z,0
2017-10-24T01:36:01.852Z,0
2017-10-24T01:37:23.540Z,0
2017-10-24T01:38:45.705Z,0
2017-10-24T01:40:07.539Z,0
2017-10-24T01:41:29.712Z,0
2017-10-24T01:42:51.875Z,0
2017-10-24T01:44:14.406Z,0
2017-10-24T01:45:36.585Z,0
2017-10-24T01:46:58.766Z,0
2017-10-24T01:48:20.959Z,0
2017-10-24T01:49:42.484Z,0
2017-10-24T01:51:04.665Z,0
2017-10-24T01:52:26.885Z,0
2017-10-24T01:53:49.660Z,0
2017-10-24T01:55:11.491Z,0
2017-10-24T01:56:33.334Z,0
2017-10-24T01:57:55.511Z,0
2017-10-24T01:59:16.692Z,0
2017-10-24T02:00:38.605Z,0
2017-10-24T02:02:00.116Z,0
2017-10-24T02:03:21.624Z,0
2017-10-24T02:04:44.379Z,0
2017-10-24T02:06:05.880Z,0
2017-10-24T02:07:27.732Z,0
2017-10-24T02:08:49.894Z,0
2017-10-24T02:10:11.754Z,0
2017-10-24T02:11:32.936Z,0
2017-10-24T02:12:54.604Z,0
2017-10-24T02:14:16.547Z,0
2017-10-24T02:15:39.388Z,0
2017-10-24T02:17:01.601Z,0
2017-10-24T02:18:24.156Z,0
2017-10-24T02:19:46.045Z,0
2017-10-24T02:21:07.892Z,0
2017-10-24T02:22:29.755Z,0
2017-10-24T02:23:51.945Z,0
2017-10-24T02:25:13.459Z,0
2017-10-24T02:26:35.648Z,0
2017-10-24T02:27:57.866Z,0
2017-10-24T02:29:19.704Z,0
2017-10-24T02:30:41.555Z,0
2017-10-24T02:32:03.483Z,0
2017-10-24T02:33:25.653Z,0
2017-10-24T02:34:47.834Z,0
2017-10-24T02:36:10.335Z,0
2017-10-24T02:37:32.804Z,0
2017-10-24T02:38:54.751Z,0
2017-10-24T02:40:16.289Z,0
2017-10-24T02:41:38.156Z,0
2017-10-24T02:43:00.007Z,0
2017-10-24T02:44:22.255Z,0
2017-10-24T02:45:44.421Z,0
2017-10-24T02:47:06.330Z,0
2017-10-24T02:48:28.809Z,0
2017-10-24T02:49:50.396Z,0
2017-10-24T02:51:11.565Z,0
2017-10-24T02:52:33.805Z,0
2017-10-24T02:53:55.964Z,0
2017-10-24T02:55:18.171Z,0
2017-10-24T02:56:39.733Z,0
2017-10-24T02:58:01.945Z,0
2017-10-24T02:59:24.137Z,0
2017-10-24T03:00:46.381Z,0
2017-10-24T03:02:07.906Z,0
2017-10-24T03:03:30.460Z,0
2017-10-24T03:04:53.311Z,0
2017-10-24T03:06:15.487Z,0
2017-10-24T03:07:37.318Z,0
2017-10-24T03:08:59.636Z,0
2017-10-24T03:10:21.805Z,0
2017-10-24T03:11:43.665Z,0
2017-10-24T03:13:05.503Z,0
2017-10-24T03:14:27.350Z,0
2017-10-24T03:15:50.128Z,0
2017-10-24T03:17:12.650Z,0
2017-10-24T03:18:34.852Z,0
2017-10-24T03:19:56.684Z,0
2017-10-24T03:21:18.661Z,0
2017-10-24T03:22:40.165Z,0
2017-10-24T03:24:02.133Z,0
2017-10-24T03:25:23.649Z,0
2017-10-24T03:26:45.934Z,0
2017-10-24T03:28:08.137Z,0
2017-10-24T03:29:30.312Z,0
2017-10-24T03:30:51.496Z,0
2017-10-24T03:32:13.399Z,0
2017-10-24T03:33:35.592Z,0
2017-10-24T03:34:57.750Z,0
2017-10-24T03:36:19.273Z,0
2017-10-24T03:37:40.460Z,0
2017-10-24T03:39:02.316Z,0
2017-10-24T03:40:24.505Z,0
2017-10-24T03:41:46.665Z,0
2017-10-24T03:43:07.545Z,0
2017-10-24T03:44:29.754Z,0
2017-10-24T03:45:52.368Z,0
2017-10-24T03:47:14.874Z,0
2017-10-24T03:48:36.968Z,0
2017-10-24T03:49:58.925Z,0
2017-10-24T03:51:21.110Z,0
2017-10-24T03:52:43.368Z,0
2017-10-24T03:54:05.565Z,0
2017-10-24T03:55:27.394Z,0
2017-10-24T03:56:48.902Z,0
2017-10-24T03:58:11.092Z,0
2017-10-24T03:59:33.532Z,0
2017-10-24T04:00:56.032Z,0
2017-10-24T04:02:17.881Z,0
2017-10-24T04:03:40.486Z,0
2017-10-24T04:05:02.157Z,0
2017-10-24T04:06:24.665Z,0
2017-10-24T04:07:46.594Z,0
2017-10-24T04:09:08.125Z,0
2017-10-24T04:10:30.562Z,0
2017-10-24T04:11:52.768Z,0
2017-10-24T04:13:14.635Z,0
2017-10-24T04:14:37.145Z,0
2017-10-24T04:15:59.329Z,0
2017-10-24T04:17:21.165Z,0
2017-10-24T04:18:43.013Z,0
2017-10-24T04:20:04.855Z,0
2017-10-24T04:21:26.706Z,0
2017-10-24T04:22:48.719Z,0
2017-10-24T04:24:10.304Z,0
2017-10-24T04:25:32.834Z,0
2017-10-24T04:27:09.933Z,0
2017-10-24T04:28:31.782Z,0
2017-10-24T04:29:53.397Z,0
2017-10-24T04:31:15.556Z,0
2017-10-24T04:32:38.113Z,0
2017-10-24T04:34:00.483Z,0
2017-10-24T04:35:22.324Z,0
2017-10-24T04:36:44.564Z,0
2017-10-24T04:38:06.798Z,0
2017-10-24T04:39:28.635Z,0
2017-10-24T04:40:50.810Z,0
2017-10-24T04:42:12.980Z,0
2017-10-24T04:43:35.491Z,0
2017-10-24T04:44:58.053Z,0
2017-10-24T04:46:20.246Z,0
2017-10-24T04:47:41.455Z,0
2017-10-24T04:49:03.658Z,0
2017-10-24T04:50:25.155Z,0
2017-10-24T04:51:47.663Z,0
2017-10-24T04:53:09.590Z,0
2017-10-24T04:54:31.463Z,0
2017-10-24T04:55:53.304Z,0
2017-10-24T04:57:15.482Z,0
2017-10-24T04:58:37.704Z,0
2017-10-24T04:59:59.870Z,0
2017-10-24T05:01:22.532Z,0
2017-10-24T05:02:44.722Z,0
2017-10-24T05:04:06.565Z,0
2017-10-24T05:05:28.501Z,0
2017-10-24T05:06:50.778Z,0
2017-10-24T05:08:12.968Z,0
2017-10-24T05:09:35.184Z,0
2017-10-24T05:10:56.684Z,0
2017-10-24T05:12:18.207Z,0
2017-10-24T05:13:40.396Z,0
2017-10-24T05:15:01.999Z,0
2017-10-24T05:16:23.191Z,0
2017-10-24T05:17:45.454Z,0
2017-10-24T05:19:07.322Z,0
2017-10-24T05:20:29.180Z,0
2017-10-24T05:21:51.680Z,0
2017-10-24T05:23:13.639Z,0
2017-10-24T05:24:35.995Z,0
2017-10-24T05:25:57.953Z,0
2017-10-24T05:27:19.474Z,0
2017-10-24T05:28:41.314Z,0
2017-10-24T05:30:03.589Z,0
2017-10-24T05:31:25.114Z,0
2017-10-24T05:32:46.963Z,0
2017-10-24T05:34:09.281Z,0
2017-10-24T05:35:31.211Z,0
2017-10-24T05:36:52.405Z,0
2017-10-24T05:38:13.933Z,0
2017-10-24T05:39:35.774Z,0
2017-10-24T05:40:58.274Z,4
2017-10-24T05:42:20.455Z,4
2017-10-24T05:43:42.297Z,0
2017-10-24T05:45:04.153Z,4
2017-10-24T05:46:25.992Z,4
2017-10-24T05:47:47.957Z,4
2017-10-24T05:49:10.472Z,4
2017-10-24T05:50:32.337Z,8
2017-10-24T05:51:54.543Z,8
2017-10-24T05:53:16.384Z,8
2017-10-24T05:54:38.901Z,12
2017-10-24T05:56:01.147Z,16
2017-10-24T05:57:22.987Z,16
2017-10-24T05:58:45.181Z,20
2017-10-24T06:00:07.094Z,24
2017-10-24T06:01:29.278Z,32
2017-10-24T06:02:50.542Z,36
2017-10-24T06:04:12.403Z,48
2017-10-24T06:05:34.262Z,56
2017-10-24T06:06:55.758Z,60
2017-10-24T06:08:18.284Z,72
2017-10-24T06:09:40.126Z,80
2017-10-24T06:11:01.653Z,96
2017-10-24T06:12:23.899Z,108
2017-10-24T06:13:45.735Z,120
2017-10-24T06:15:07.920Z,136
2017-10-24T06:16:29.766Z,156
2017-10-24T06:17:52.294Z,164
2017-10-24T06:19:15.011Z,192
2017-10-24T06:20:36.985Z,224
2017-10-24T06:21:59.426Z,244
2017-10-24T06:23:21.276Z,276
2017-10-24T06:24:43.115Z,276
2017-10-24T06:26:05.618Z,328
2017-10-24T06:27:27.136Z,372
2017-10-24T06:28:49.314Z,412
2017-10-24T06:30:11.493Z,456
2017-10-24T06:31:33.328Z,452
2017-10-24T06:32:55.609Z,496
2017-10-24T06:34:17.797Z,468
2017-10-24T06:35:39.666Z,524
2017-10-24T06:37:01.511Z,572
2017-10-24T06:38:23.376Z,684
2017-10-24T06:39:45.240Z,768
2017-10-24T06:41:07.423Z,752
2017-10-24T06:42:29.957Z,884
2017-10-24T06:43:52.124Z,1012
2017-10-24T06:45:14.306Z,1156
2017-10-24T06:46:36.180Z,1176
2017-10-24T06:47:58.354Z,1048
2017-10-24T06:49:20.505Z,1096
2017-10-24T06:50:42.771Z,1148
2017-10-24T06:52:04.595Z,1016
2017-10-24T06:53:27.161Z,1036
2017-10-24T06:54:49.160Z,1036
2017-10-24T06:56:11.349Z,1048
2017-10-24T06:57:32.894Z,1172
2017-10-24T06:58:54.753Z,1100
2017-10-24T07:00:16.730Z,1240
2017-10-24T07:01:38.579Z,1228
2017-10-24T07:03:00.293Z,1276
2017-10-24T07:04:21.803Z,1320
2017-10-24T07:05:43.470Z,1264
2017-10-24T07:07:05.648Z,1252
2017-10-24T07:08:27.489Z,1176
2017-10-24T07:09:49.725Z,1248
2017-10-24T07:11:12.165Z,1272
2017-10-24T07:12:34.409Z,1444
2017-10-24T07:13:55.705Z,1608
2017-10-24T07:15:17.891Z,1744
2017-10-24T07:16:40.084Z,1868
2017-10-24T07:18:02.300Z,1788
2017-10-24T07:19:23.811Z,1872
2017-10-24T07:20:45.998Z,2112
2017-10-24T07:22:08.189Z,2092
2017-10-24T07:23:29.701Z,2300
2017-10-24T07:24:51.311Z,2292
2017-10-24T07:26:13.805Z,2408
2017-10-24T07:27:35.678Z,2724
2017-10-24T07:28:57.584Z,2728
2017-10-24T07:30:19.775Z,2668
2017-10-24T07:31:41.614Z,2640
2017-10-24T07:33:04.138Z,2456
2017-10-24T07:34:25.985Z,2632
2017-10-24T07:35:48.141Z,2512
2017-10-24T07:37:10.328Z,2560
2017-10-24T07:38:32.816Z,2532
2017-10-24T07:39:54.993Z,2688
2017-10-24T07:41:16.516Z,3052
2017-10-24T07:42:38.354Z,3056
2017-10-24T07:44:00.443Z,2920
2017-10-24T07:45:22.304Z,2848
2017-10-24T07:46:44.194Z,2996
2017-10-24T07:48:06.364Z,2968
2017-10-24T07:49:28.685Z,3152
2017-10-24T07:50:49.873Z,3244
2017-10-24T07:52:11.380Z,3548
2017-10-24T07:53:32.913Z,3632
2017-10-24T07:54:55.415Z,3284
2017-10-24T07:56:17.944Z,3436
2017-10-24T07:57:39.445Z,3180
2017-10-24T07:59:00.977Z,3224
2017-10-24T08:00:22.842Z,2824
2017-10-24T08:01:45.161Z,2900
2017-10-24T08:03:07.002Z,2872
2017-10-24T08:04:28.192Z,3216
2017-10-24T08:05:50.384Z,3216
2017-10-24T08:07:12.574Z,3272
2017-10-24T08:08:34.874Z,3332
2017-10-24T08:09:56.442Z,2896
2017-10-24T08:11:18.397Z,2956
2017-10-24T08:12:39.900Z,3156
2017-10-24T08:14:02.243Z,2964
2017-10-24T08:15:23.089Z,3020
2017-10-24T08:16:45.274Z,2960
2017-10-24T08:18:07.830Z,3128
2017-10-24T08:19:30.026Z,3360
2017-10-24T08:20:52.413Z,3372
2017-10-24T08:22:14.284Z,3420
2017-10-24T08:23:36.503Z,3576
2017-10-24T08:24:58.366Z,3700
2017-10-24T08:26:20.564Z,3512
2017-10-24T08:27:42.081Z,3936
2017-10-24T08:29:04.369Z,3856
2017-10-24T08:30:26.561Z,3672
2017-10-24T08:31:48.739Z,4144
2017-10-24T08:33:10.318Z,3664
2017-10-24T08:34:32.661Z,4012
2017-10-24T08:35:55.203Z,3644
2017-10-24T08:37:17.612Z,4180
2017-10-24T08:38:40.198Z,4712
2017-10-24T08:40:02.123Z,4716
2017-10-24T08:41:24.654Z,4916
2017-10-24T08:42:46.180Z,4884
2017-10-24T08:44:08.634Z,4668
2017-10-24T08:45:31.135Z,4836
2017-10-24T08:46:53.336Z,5532
2017-10-24T08:48:15.857Z,5484
2017-10-24T08:49:38.626Z,5496
2017-10-24T08:51:01.152Z,5552
2017-10-24T08:52:23.352Z,5292
2017-10-24T08:53:45.355Z,5656
2017-10-24T08:55:07.625Z,5740
2017-10-24T08:56:29.506Z,5640
2017-10-24T08:57:51.673Z,5884
2017-10-24T08:59:13.251Z,6000
2017-10-24T09:00:35.354Z,6356
2017-10-24T09:01:57.932Z,5200
2017-10-24T09:03:20.484Z,5596
2017-10-24T09:04:42.334Z,5728
2017-10-24T09:06:05.191Z,6216
2017-10-24T09:07:27.081Z,5636
2017-10-24T09:08:49.632Z,5660
2017-10-24T09:10:11.872Z,5732
2017-10-24T09:11:33.411Z,6372
2017-10-24T09:12:55.596Z,6664
2017-10-24T09:14:17.793Z,6456
2017-10-24T09:15:40.310Z,8072
2017-10-24T09:17:02.528Z,7096
2017-10-24T09:18:24.705Z,6636
2017-10-24T09:19:46.893Z,6220
2017-10-24T09:21:09.402Z,6064
2017-10-24T09:22:31.673Z,6172
2017-10-24T09:23:54.224Z,6740
2017-10-24T09:25:16.214Z,5656
2017-10-24T09:26:38.562Z,5664
2017-10-24T09:28:00.739Z,5276
2017-10-24T09:29:22.258Z,5704
2017-10-24T09:30:44.111Z,5484
2017-10-24T09:32:05.958Z,4788
2017-10-24T09:33:28.167Z,5064
2017-10-24T09:34:49.716Z,5260
2017-10-24T09:36:11.972Z,5312
2017-10-24T09:37:33.815Z,4988
2017-10-24T09:38:56.047Z,5104
2017-10-24T09:40:18.203Z,6088
2017-10-24T09:41:40.400Z,5540
2017-10-24T09:43:02.246Z,4652
2017-10-24T09:44:24.113Z,5196
2017-10-24T09:45:46.294Z,5312
2017-10-24T09:47:08.892Z,5612
2017-10-24T09:48:30.753Z,6152
2017-10-24T09:49:52.953Z,5636
2017-10-24T09:51:15.154Z,5344
2017-10-24T09:52:37.348Z,4804
2017-10-24T09:53:59.313Z,4920
2017-10-24T09:55:21.154Z,6492
2017-10-24T09:56:42.664Z,5076
2017-10-24T09:58:04.843Z,4844
2017-10-24T09:59:26.716Z,4032
2017-10-24T10:00:48.933Z,4620
2017-10-24T10:02:10.829Z,4360
2017-10-24T10:03:32.361Z,3736
2017-10-24T10:04:54.547Z,3668
2017-10-24T10:06:16.772Z,4140
2017-10-24T10:07:39.315Z,5432
2017-10-24T10:09:01.160Z,6280
2017-10-24T10:10:23.083Z,6500
2017-10-24T10:11:44.531Z,6372
2017-10-24T10:13:06.733Z,6684
2017-10-24T10:14:28.290Z,6440
2017-10-24T10:15:50.812Z,6380
2017-10-24T10:17:13.332Z,6788
2017-10-24T10:18:35.225Z,6700
2017-10-24T10:19:57.428Z,7084
2017-10-24T10:21:19.616Z,6696
2017-10-24T10:22:41.477Z,7380
2017-10-24T10:24:03.344Z,7344
2017-10-24T10:25:25.429Z,7128
2017-10-24T10:26:46.768Z,7892
2017-10-24T10:28:09.003Z,7248
2017-10-24T10:29:30.925Z,8452
2017-10-24T10:30:53.217Z,9268
2017-10-24T10:32:15.423Z,9044
2017-10-24T10:33:37.384Z,10520
2017-10-24T10:34:59.270Z,9608
2017-10-24T10:36:21.144Z,9428
2017-10-24T10:37:43.026Z,9376
2017-10-24T10:39:05.204Z,8336
2017-10-24T10:40:27.042Z,7820
2017-10-24T10:41:48.897Z,9604
2017-10-24T10:43:10.754Z,8532
2017-10-24T10:44:33.722Z,6956
2017-10-24T10:45:55.913Z,5672
2017-10-24T10:47:17.444Z,6636
2017-10-24T10:48:40.016Z,6840
2017-10-24T10:50:01.332Z,7048
2017-10-24T10:51:22.973Z,8948
2017-10-24T10:52:44.166Z,9312
2017-10-24T10:54:06.678Z,8136
2017-10-24T10:55:28.561Z,7172
2017-10-24T10:56:51.096Z,6428
2017-10-24T10:58:13.667Z,6476
2017-10-24T10:59:35.847Z,6104
2017-10-24T11:00:57.717Z,6588
2017-10-24T11:02:20.243Z,6348
2017-10-24T11:03:42.452Z,6120
2017-10-24T11:05:04.299Z,5636
2017-10-24T11:06:26.480Z,5792
2017-10-24T11:07:48.861Z,5452
2017-10-24T11:09:11.371Z,4596
2017-10-24T11:10:32.996Z,4324
2017-10-24T11:11:55.683Z,4732
2017-10-24T11:13:17.552Z,4620
2017-10-24T11:14:40.166Z,4540
2017-10-24T11:16:02.401Z,4084
2017-10-24T11:17:24.368Z,4112
2017-10-24T11:18:46.221Z,4468
2017-10-24T11:20:08.435Z,4252
2017-10-24T11:21:31.017Z,4396
2017-10-24T11:22:52.855Z,5216
2017-10-24T11:24:15.074Z,5656
2017-10-24T11:25:37.592Z,6368
2017-10-24T11:26:59.805Z,6148
2017-10-24T11:28:22.361Z,5724
2017-10-24T11:29:44.546Z,6128
2017-10-24T11:31:06.415Z,6044
2017-10-24T11:32:28.302Z,5868
2017-10-24T11:33:50.493Z,5792
2017-10-24T11:35:13.052Z,4940
2017-10-24T11:36:35.234Z,4636
2017-10-24T11:37:56.759Z,4224
2017-10-24T11:39:18.993Z,4580
2017-10-24T11:40:41.500Z,4984
2017-10-24T11:42:03.686Z,5140
2017-10-24T11:43:26.197Z,5292
2017-10-24T11:44:48.442Z,4668
2017-10-24T11:46:10.696Z,5428
2017-10-24T11:47:32.894Z,4772
2017-10-24T11:48:55.430Z,4164
2017-10-24T11:50:17.282Z,4120
2017-10-24T11:51:38.831Z,4224
2017-10-24T11:53:01.075Z,4280
2017-10-24T11:54:23.625Z,3948
2017-10-24T11:55:45.904Z,3984
2017-10-24T11:57:08.106Z,4528
2017-10-24T11:58:30.673Z,3924
2017-10-24T11:59:52.874Z,3428
2017-10-24T12:01:15.679Z,3356
2017-10-24T12:02:37.387Z,3628
2017-10-24T12:03:59.572Z,3720
2017-10-24T12:05:21.512Z,3512
2017-10-24T12:06:44.031Z,3644
2017-10-24T12:08:06.197Z,3716
2017-10-24T12:09:28.070Z,3760
2017-10-24T12:10:50.654Z,3600
2017-10-24T12:12:12.838Z,3540
2017-10-24T12:13:35.046Z,3420
2017-10-24T12:14:57.594Z,3880
2017-10-24T12:16:19.487Z,3788
2017-10-24T12:17:41.913Z,4164
2017-10-24T12:19:04.107Z,4560
2017-10-24T12:20:26.360Z,4136
2017-10-24T12:21:48.574Z,4132
2017-10-24T12:23:11.397Z,4048
2017-10-24T12:24:33.279Z,3440
2017-10-24T12:25:55.492Z,2788
2017-10-24T12:27:17.803Z,2464
2017-10-24T12:28:39.325Z,2452
2017-10-24T12:30:01.520Z,2444
2017-10-24T12:31:23.714Z,2308
2017-10-24T12:32:46.237Z,2228
2017-10-24T12:34:08.514Z,1944
2017-10-24T12:35:31.065Z,1920
2017-10-24T12:36:53.613Z,1796
2017-10-24T12:38:15.563Z,2048
2017-10-24T12:39:37.664Z,1956
2017-10-24T12:40:59.894Z,2344
2017-10-24T12:42:22.092Z,2676
2017-10-24T12:43:44.636Z,2920
2017-10-24T12:45:06.956Z,3620
2017-10-24T12:46:29.480Z,4088
2017-10-24T12:47:51.328Z,4264
2017-10-24T12:49:12.529Z,4252
2017-10-24T12:50:34.815Z,3500
2017-10-24T12:51:57.359Z,3384
2017-10-24T12:53:19.950Z,3224
2017-10-24T12:54:42.460Z,3392
2017-10-24T12:56:04.967Z,3332
2017-10-24T12:57:26.138Z,3452
2017-10-24T12:58:48.345Z,3640
2017-10-24T13:00:10.954Z,3576
2017-10-24T13:01:33.505Z,3352
2017-10-24T13:02:55.781Z,3232
2017-10-24T13:04:17.991Z,2448
2017-10-24T13:05:40.242Z,2548
2017-10-24T13:07:02.442Z,2544
2017-10-24T13:08:24.630Z,2312
2017-10-24T13:09:46.816Z,2784
2017-10-24T13:11:08.989Z,2604
2017-10-24T13:12:31.179Z,2988
2017-10-24T13:13:52.713Z,3000
2017-10-24T13:15:14.585Z,3316
2017-10-24T13:16:36.427Z,4984
2017-10-24T13:17:58.647Z,6144
2017-10-24T13:19:20.874Z,4076
2017-10-24T13:20:43.111Z,3404
2017-10-24T13:22:05.324Z,2924
2017-10-24T13:23:27.816Z,3180
2017-10-24T13:24:50.015Z,2968
2017-10-24T13:26:11.873Z,2844
2017-10-24T13:27:33.736Z,2456
2017-10-24T13:28:55.946Z,3136
2017-10-24T13:30:17.503Z,3320
2017-10-24T13:31:39.687Z,2636
2017-10-24T13:33:01.899Z,2744
2017-10-24T13:34:24.083Z,2820
2017-10-24T13:35:46.274Z,3804
2017-10-24T13:37:08.136Z,4176
2017-10-24T13:38:30.010Z,3496
2017-10-24T13:39:51.875Z,3184
2017-10-24T13:41:14.115Z,3424
2017-10-24T13:42:36.462Z,3592
2017-10-24T13:43:58.836Z,3160
2017-10-24T13:45:21.426Z,2984
2017-10-24T13:46:43.614Z,1824
2017-10-24T13:48:06.142Z,1368
2017-10-24T13:49:28.320Z,1340
2017-10-24T13:50:50.575Z,1184
2017-10-24T13:52:12.754Z,1256
2017-10-24T13:53:34.964Z,1160
2017-10-24T13:54:57.196Z,1184
2017-10-24T13:56:19.715Z,1132
2017-10-24T13:57:41.664Z,1404
2017-10-24T13:59:04.203Z,1308
2017-10-24T14:00:26.416Z,1116
2017-10-24T14:01:48.606Z,1516
2017-10-24T14:03:11.134Z,1532
2017-10-24T14:04:32.663Z,1608
2017-10-24T14:05:54.644Z,1648
2017-10-24T14:07:17.225Z,1716
2017-10-24T14:08:39.418Z,1688
2017-10-24T14:10:01.619Z,1432
2017-10-24T14:11:23.845Z,1500
2017-10-24T14:12:45.693Z,1520
2017-10-24T14:14:07.564Z,1408
2017-10-24T14:15:30.184Z,1436
2017-10-24T14:16:52.693Z,1400
2017-10-24T14:18:14.225Z,1300
2017-10-24T14:19:36.410Z,1220
2017-10-24T14:20:58.955Z,1208
2017-10-24T14:22:21.504Z,1264
2017-10-24T14:23:43.024Z,1244
2017-10-24T14:25:05.312Z,1024
2017-10-24T14:26:27.491Z,1080
2017-10-24T14:27:49.048Z,1092
2017-10-24T14:29:11.281Z,832
2017-10-24T14:30:33.836Z,740
2017-10-24T14:31:55.696Z,788
2017-10-24T14:33:17.624Z,888
2017-10-24T14:34:39.833Z,840
2017-10-24T14:36:02.523Z,800
2017-10-24T14:37:24.395Z,852
2017-10-24T14:38:46.286Z,868
2017-10-24T14:40:08.486Z,840
2017-10-24T14:41:30.700Z,904
2017-10-24T14:42:52.909Z,948
2017-10-24T14:44:14.758Z,1000
2017-10-24T14:45:36.983Z,1072
2017-10-24T14:46:58.856Z,1068
2017-10-24T14:48:20.728Z,1144
2017-10-24T14:49:42.918Z,1036
2017-10-24T14:51:04.956Z,952
2017-10-24T14:52:27.202Z,776
2017-10-24T14:53:49.756Z,852
2017-10-24T14:55:10.943Z,840
2017-10-24T14:56:33.075Z,808
2017-10-24T14:57:54.938Z,892
2017-10-24T14:59:16.828Z,948
2017-10-24T15:00:39.039Z,748
2017-10-24T15:02:01.507Z,672
2017-10-24T15:03:23.057Z,688
2017-10-24T15:04:44.932Z,740
2017-10-24T15:06:06.848Z,708
2017-10-24T15:07:29.062Z,700
2017-10-24T15:08:50.933Z,620
2017-10-24T15:10:13.380Z,612
2017-10-24T15:11:35.935Z,616
2017-10-24T15:12:58.448Z,640
2017-10-24T15:14:20.991Z,576
2017-10-24T15:15:43.201Z,464
2017-10-24T15:17:05.424Z,596
2017-10-24T15:18:27.302Z,616
2017-10-24T15:19:49.840Z,588
2017-10-24T15:21:12.454Z,600
2017-10-24T15:22:34.687Z,584
2017-10-24T15:23:56.881Z,604
2017-10-24T15:25:19.401Z,512
2017-10-24T15:26:41.602Z,536
2017-10-24T15:28:03.457Z,472
2017-10-24T15:29:25.684Z,500
2017-10-24T15:30:47.220Z,504
2017-10-24T15:32:09.815Z,568
2017-10-24T15:33:32.386Z,500
2017-10-24T15:34:54.893Z,548
2017-10-24T15:36:16.821Z,532
2017-10-24T15:37:39.790Z,500
2017-10-24T15:39:01.983Z,404
2017-10-24T15:40:24.240Z,356
2017-10-24T15:41:45.546Z,304
2017-10-24T15:43:08.072Z,320
2017-10-24T15:44:30.284Z,296
2017-10-24T15:45:52.876Z,236
2017-10-24T15:47:15.097Z,236
2017-10-24T15:48:37.394Z,208
2017-10-24T15:49:59.352Z,232
2017-10-24T15:51:21.907Z,212
2017-10-24T15:52:44.439Z,184
2017-10-24T15:54:06.989Z,172
2017-10-24T15:55:28.528Z,148
2017-10-24T15:56:51.156Z,120
2017-10-24T15:58:13.161Z,96
2017-10-24T15:59:35.689Z,84
2017-10-24T16:00:57.946Z,76
2017-10-24T16:02:20.586Z,84
2017-10-24T16:03:42.805Z,64
2017-10-24T16:05:05.031Z,60
2017-10-24T16:06:27.715Z,60
2017-10-24T16:07:49.947Z,56
2017-10-24T16:09:12.154Z,52
2017-10-24T16:10:34.026Z,52
2017-10-24T16:11:56.236Z,48
2017-10-24T16:13:18.786Z,40
2017-10-24T16:14:40.721Z,32
2017-10-24T16:16:02.907Z,36
2017-10-24T16:17:25.299Z,32
2017-10-24T16:18:47.180Z,28
2017-10-24T16:20:09.062Z,20
2017-10-24T16:21:30.931Z,28
2017-10-24T16:22:53.151Z,24
2017-10-24T16:24:15.351Z,16
2017-10-24T16:25:37.526Z,12
2017-10-24T16:27:00.078Z,12
2017-10-24T16:28:22.695Z,8
2017-10-24T16:29:45.030Z,8
2017-10-24T16:31:07.226Z,4
2017-10-24T16:32:29.754Z,4
2017-10-24T16:33:51.944Z,4
2017-10-24T16:35:14.435Z,0
2017-10-24T16:36:36.396Z,0
2017-10-24T16:37:58.615Z,0
2017-10-24T16:39:21.185Z,0
2017-10-24T16:40:43.367Z,0
2017-10-24T16:42:05.680Z,0
2017-10-24T16:43:28.236Z,0
2017-10-24T16:44:50.506Z,0
2017-10-24T16:46:13.194Z,0
2017-10-24T16:47:35.445Z,0
2017-10-24T16:48:57.631Z,0
2017-10-24T16:50:20.252Z,0
2017-10-24T16:51:42.092Z,0
2017-10-24T16:53:03.988Z,0
2017-10-24T16:54:26.305Z,0
2017-10-24T16:55:48.173Z,0
2017-10-24T16:57:10.612Z,0
2017-10-24T16:58:33.318Z,0
2017-10-24T16:59:55.919Z,0
2017-10-24T17:01:18.485Z,0
2017-10-24T17:02:40.788Z,0
2017-10-24T17:04:03.124Z,0
2017-10-24T17:05:25.681Z,0
2017-10-24T17:06:47.535Z,0
2017-10-24T17:08:09.816Z,0
2017-10-24T17:09:32.069Z,0
2017-10-24T17:10:54.280Z,0
2017-10-24T17:12:16.816Z,0
2017-10-24T17:13:39.412Z,0
2017-10-24T17:15:01.683Z,0
2017-10-24T17:16:23.899Z,0
2017-10-24T17:17:46.115Z,0
2017-10-24T17:19:08.321Z,0
2017-10-24T17:20:30.657Z,0
2017-10-24T17:21:52.512Z,0
2017-10-24T17:23:14.064Z,0
2017-10-24T17:24:36.629Z,0
2017-10-24T17:25:58.868Z,0
2017-10-24T17:27:20.548Z,0
2017-10-24T17:28:42.795Z,0
2017-10-24T17:30:04.669Z,0
2017-10-24T17:31:27.205Z,0
2017-10-24T17:32:49.802Z,0
2017-10-24T17:34:12.350Z,0
2017-10-24T17:35:34.878Z,0
2017-10-24T17:36:57.474Z,0
2017-10-24T17:38:19.677Z,0
2017-10-24T17:39:42.293Z,48
2017-10-24T17:41:04.885Z,52
2017-10-24T17:42:26.768Z,0
2017-10-24T17:43:49.331Z,0
2017-10-24T17:45:11.883Z,0
2017-10-24T17:46:34.467Z,0
2017-10-24T17:47:56.395Z,0
2017-10-24T17:49:19.285Z,0
2017-10-24T17:50:41.495Z,0
2017-10-24T17:52:03.702Z,0
2017-10-24T17:53:25.941Z,0
2017-10-24T17:54:47.471Z,0
2017-10-24T17:56:09.321Z,0
2017-10-24T17:57:31.209Z,0
2017-10-24T17:58:53.884Z,0
2017-10-24T18:00:16.101Z,0
2017-10-24T18:01:38.645Z,0
2017-10-24T18:03:00.514Z,0
2017-10-24T18:04:22.386Z,0
2017-10-24T18:05:45.116Z,0
2017-10-24T18:07:07.442Z,0
2017-10-24T18:08:29.752Z,0
2017-10-24T18:09:51.979Z,0
2017-10-24T18:11:14.174Z,0
2017-10-24T18:12:36.715Z,0
2017-10-24T18:13:58.976Z,0
2017-10-24T18:15:21.186Z,0
2017-10-24T18:16:43.752Z,0
2017-10-24T18:18:06.305Z,0
2017-10-24T18:19:28.516Z,0
2017-10-24T18:20:50.796Z,0
2017-10-24T18:22:13.339Z,0
2017-10-24T18:23:35.883Z,0
2017-10-24T18:24:58.717Z,0
2017-10-24T18:26:20.945Z,0
2017-10-24T18:27:43.486Z,0
2017-10-24T18:29:06.056Z,0
2017-10-24T18:30:28.294Z,0
2017-10-24T18:31:50.564Z,0
2017-10-24T18:33:12.753Z,0
2017-10-24T18:34:35.005Z,0
2017-10-24T18:35:57.595Z,0
2017-10-24T18:37:19.480Z,0
2017-10-24T18:38:41.841Z,0
2017-10-24T18:40:03.740Z,0
2017-10-24T18:41:26.348Z,0
2017-10-24T18:42:48.604Z,0
2017-10-24T18:44:11.177Z,0
2017-10-24T18:45:33.744Z,0
2017-10-24T18:46:56.299Z,0
2017-10-24T18:48:18.946Z,0
2017-10-24T18:49:41.465Z,0
2017-10-24T18:51:03.664Z,0
2017-10-24T18:52:26.229Z,0
2017-10-24T18:53:48.785Z,0
2017-10-24T18:55:11.087Z,0
2017-10-24T18:56:33.710Z,0
2017-10-24T18:57:56.268Z,0
2017-10-24T18:59:18.909Z,0
2017-10-24T19:00:41.153Z,0
2017-10-24T19:02:03.105Z,0
2017-10-24T19:03:25.568Z,0
2017-10-24T19:04:47.491Z,0
2017-10-24T19:06:09.830Z,0
2017-10-24T19:07:32.455Z,0
2017-10-24T19:08:54.798Z,0
2017-10-24T19:10:17.355Z,0
2017-10-24T19:11:39.249Z,0